createdAt,value
2023-03-05T00:01:55.569Z,13.93
2023-03-05T00:04:22.292Z,26.27
2023-03-05T00:06:48.685Z,14.98
2023-03-05T00:09:15.025Z,13.73
2023-03-05T00:11:41.398Z,18.60
2023-03-05T00:14:07.815Z,15.32
2023-03-05T00:16:34.261Z,20.50
2023-03-05T00:19:01.301Z,12.00
2023-03-05T00:21:34.590Z,12.65
2023-03-05T00:24:03.169Z,14.00
2023-03-05T00:26:30.591Z,15.05
2023-03-05T00:28:57.970Z,12.63
2023-03-05T00:31:30.378Z,15.43
2023-03-05T00:33:59.773Z,11.80
2023-03-05T00:36:26.696Z,15.85
2023-03-05T00:38:53.259Z,16.17
2023-03-05T00:41:19.693Z,24.77
2023-03-05T00:43:46.633Z,26.15
2023-03-05T00:46:13.021Z,18.38
2023-03-05T00:48:39.386Z,17.92
2023-03-05T00:51:05.955Z,20.80
2023-03-05T00:53:32.352Z,17.13
2023-03-05T00:55:59.245Z,17.75
2023-03-05T00:58:25.845Z,17.38
2023-03-05T01:00:52.302Z,18.95
2023-03-05T01:03:19.062Z,21.10
2023-03-05T01:05:45.663Z,24.60
2023-03-05T01:08:12.058Z,27.98
2023-03-05T01:10:38.742Z,25.13
2023-03-05T01:13:05.099Z,26.30
2023-03-05T01:15:31.691Z,26.98
2023-03-05T01:17:58.169Z,34.90
2023-03-05T01:20:24.606Z,32.20
2023-03-05T01:22:51.038Z,27.00
2023-03-05T01:25:17.727Z,26.67
2023-03-05T01:27:44.712Z,27.75
2023-03-05T01:30:13.012Z,32.60
2023-03-05T01:32:39.782Z,28.55
2023-03-05T01:35:07.323Z,27.23
2023-03-05T01:37:33.757Z,28.45
2023-03-05T01:40:00.200Z,28.48
2023-03-05T01:42:26.556Z,28.00
2023-03-05T01:45:02.995Z,28.13
2023-03-05T01:47:29.710Z,29.25
2023-03-05T01:49:56.849Z,28.17
2023-03-05T01:52:25.200Z,30.08
2023-03-05T01:54:55.784Z,31.42
2023-03-05T01:57:28.387Z,30.90
2023-03-05T02:00:00.226Z,29.92
2023-03-05T02:02:26.640Z,30.33
2023-03-05T02:04:59.202Z,31.63
2023-03-05T02:07:26.292Z,30.75
2023-03-05T02:09:52.998Z,30.98
2023-03-05T02:12:19.454Z,31.05
2023-03-05T02:14:48.846Z,31.73
2023-03-05T02:17:15.834Z,32.17
2023-03-05T02:19:55.731Z,31.05
2023-03-05T02:22:24.181Z,32.72
2023-03-05T02:24:51.283Z,31.50
2023-03-05T02:27:20.499Z,35.97
2023-03-05T02:29:46.857Z,31.75
2023-03-05T02:32:13.544Z,32.50
2023-03-05T02:34:41.775Z,36.03
2023-03-05T02:37:09.968Z,32.05
2023-03-05T02:39:36.474Z,32.90
2023-03-05T02:42:02.913Z,31.77
2023-03-05T02:44:29.280Z,32.13
2023-03-05T02:46:55.687Z,31.90
2023-03-05T02:49:22.037Z,31.58
2023-03-05T02:51:48.402Z,31.95
2023-03-05T02:54:14.864Z,32.05
2023-03-05T02:56:41.881Z,35.55
2023-03-05T02:59:09.538Z,31.55
2023-03-05T03:01:35.938Z,32.35
2023-03-05T03:04:02.340Z,32.20
2023-03-05T03:06:28.849Z,36.80
2023-03-05T03:08:55.307Z,31.95
2023-03-05T03:11:21.809Z,32.65
2023-03-05T03:13:48.176Z,33.33
2023-03-05T03:16:15.714Z,32.78
2023-03-05T03:18:42.540Z,32.58
2023-03-05T03:21:08.952Z,32.95
2023-03-05T03:23:35.647Z,33.80
2023-03-05T03:26:02.010Z,32.00
2023-03-05T03:28:28.374Z,33.80
2023-03-05T03:30:54.838Z,34.03
2023-03-05T03:33:21.229Z,33.47
2023-03-05T03:35:47.691Z,33.83
2023-03-05T03:38:14.245Z,32.33
2023-03-05T03:40:46.780Z,33.08
2023-03-05T03:43:13.128Z,36.72
2023-03-05T03:45:43.732Z,33.53
2023-03-05T03:48:11.180Z,33.22
2023-03-05T03:50:41.240Z,34.70
2023-03-05T03:53:08.227Z,34.58
2023-03-05T03:55:34.892Z,34.72
2023-03-05T03:58:01.532Z,34.65
2023-03-05T04:00:28.042Z,34.45
2023-03-05T04:02:54.432Z,34.28
2023-03-05T04:05:20.965Z,36.47
2023-03-05T04:07:47.351Z,35.28
2023-03-05T04:10:13.731Z,35.83
2023-03-05T04:12:43.021Z,33.53
2023-03-05T04:15:10.721Z,34.00
2023-03-05T04:17:37.102Z,33.88
2023-03-05T04:20:05.752Z,32.65
2023-03-05T04:22:32.086Z,33.03
2023-03-05T04:24:58.823Z,31.98
2023-03-05T04:27:25.364Z,31.58
2023-03-05T04:29:51.746Z,31.50
2023-03-05T04:32:23.094Z,32.22
2023-03-05T04:34:49.616Z,35.85
2023-03-05T04:37:15.976Z,30.75
2023-03-05T04:39:42.353Z,30.85
2023-03-05T04:42:10.415Z,31.15
2023-03-05T04:44:36.837Z,40.90
2023-03-05T04:47:03.258Z,31.60
2023-03-05T04:49:29.845Z,32.75
2023-03-05T04:51:57.574Z,30.55
2023-03-05T04:54:24.882Z,32.65
2023-03-05T04:56:51.237Z,31.42
2023-03-05T04:59:17.658Z,32.63
2023-03-05T05:01:43.993Z,31.30
2023-03-05T05:04:10.610Z,31.65
2023-03-05T05:06:36.968Z,31.77
2023-03-05T05:09:03.826Z,31.15
2023-03-05T05:11:30.183Z,32.30
2023-03-05T05:13:56.736Z,32.15
2023-03-05T05:16:23.181Z,32.47
2023-03-05T05:18:49.590Z,30.55
2023-03-05T05:21:17.580Z,32.95
2023-03-05T05:23:44.672Z,32.58
2023-03-05T05:26:14.240Z,31.38
2023-03-05T05:28:46.059Z,31.67
2023-03-05T05:31:15.235Z,31.08
2023-03-05T05:33:42.074Z,31.27
2023-03-05T05:36:11.975Z,30.73
2023-03-05T05:38:38.949Z,30.95
2023-03-05T05:41:07.852Z,31.05
2023-03-05T05:43:35.344Z,32.08
2023-03-05T05:46:03.704Z,30.83
2023-03-05T05:48:31.935Z,29.40
2023-03-05T05:50:58.878Z,29.40
2023-03-05T05:53:26.317Z,29.60
2023-03-05T05:55:52.698Z,30.88
2023-03-05T05:58:19.050Z,30.00
2023-03-05T06:00:45.735Z,29.58
2023-03-05T06:03:12.223Z,30.90
2023-03-05T06:05:38.634Z,28.48
2023-03-05T06:08:05.099Z,31.70
2023-03-05T06:10:31.705Z,30.40
2023-03-05T06:12:58.188Z,29.65
2023-03-05T06:15:24.561Z,28.15
2023-03-05T06:17:51.046Z,25.77
2023-03-05T06:20:17.593Z,25.50
2023-03-05T06:22:44.002Z,21.13
2023-03-05T06:25:10.861Z,20.27
2023-03-05T06:27:38.391Z,20.20
2023-03-05T06:30:06.538Z,18.90
2023-03-05T06:32:33.011Z,19.50
2023-03-05T06:34:59.487Z,17.80
2023-03-05T06:37:25.900Z,20.48
2023-03-05T06:39:52.310Z,15.55
2023-03-05T06:42:19.326Z,16.70
2023-03-05T06:44:48.761Z,16.48
2023-03-05T06:47:15.271Z,16.80
2023-03-05T06:49:41.628Z,14.98
2023-03-05T06:52:10.075Z,14.88
2023-03-05T06:54:36.468Z,15.23
2023-03-05T06:57:02.824Z,18.95
2023-03-05T06:59:29.222Z,14.02
2023-03-05T07:01:55.610Z,13.85
2023-03-05T07:04:24.079Z,14.57
2023-03-05T07:06:50.476Z,16.02
2023-03-05T07:09:16.978Z,15.02
2023-03-05T07:11:43.645Z,14.32
2023-03-05T07:14:10.031Z,13.48
2023-03-05T07:16:36.409Z,13.35
2023-03-05T07:19:05.468Z,13.80
2023-03-05T07:21:33.685Z,13.10
2023-03-05T07:24:02.332Z,13.27
2023-03-05T07:26:29.013Z,13.77
2023-03-05T07:28:56.505Z,12.43
2023-03-05T07:31:27.292Z,13.05
2023-03-05T07:33:54.186Z,14.05
2023-03-05T07:36:21.287Z,14.20
2023-03-05T07:38:47.670Z,12.23
2023-03-05T07:41:20.042Z,11.68
2023-03-05T07:43:47.732Z,12.18
2023-03-05T07:46:17.004Z,16.00
2023-03-05T07:48:43.760Z,13.00
2023-03-05T07:51:15.789Z,12.00
2023-03-05T07:53:47.232Z,12.27
2023-03-05T07:56:14.660Z,12.98
2023-03-05T07:58:41.075Z,12.57
2023-03-05T08:01:13.979Z,14.15
2023-03-05T08:03:41.571Z,15.23
2023-03-05T08:06:09.614Z,11.70
2023-03-05T08:08:36.235Z,11.90
2023-03-05T08:11:04.624Z,11.35
2023-03-05T08:13:31.297Z,11.40
2023-03-05T08:15:57.724Z,13.00
2023-03-05T08:18:24.280Z,13.23
2023-03-05T08:20:50.908Z,13.43
2023-03-05T08:23:17.317Z,12.73
2023-03-05T08:25:43.709Z,16.42
2023-03-05T08:28:10.181Z,14.13
2023-03-05T08:30:42.468Z,15.90
2023-03-05T08:33:08.938Z,11.55
2023-03-05T08:35:35.361Z,11.50
2023-03-05T08:38:01.890Z,14.63
2023-03-05T08:40:28.371Z,11.93
2023-03-05T08:42:55.198Z,21.98
2023-03-05T08:45:21.561Z,16.20
2023-03-05T08:47:47.958Z,12.60
2023-03-05T08:50:14.395Z,12.20
2023-03-05T08:52:40.791Z,11.77
2023-03-05T08:55:07.541Z,11.50
2023-03-05T08:57:33.894Z,15.13
2023-03-05T09:00:00.255Z,13.38
2023-03-05T09:02:26.795Z,11.45
2023-03-05T09:04:53.538Z,15.60
2023-03-05T09:07:19.934Z,10.85
2023-03-05T09:09:46.308Z,15.55
2023-03-05T09:12:13.368Z,11.82
2023-03-05T09:14:40.899Z,16.95
2023-03-05T09:17:08.406Z,12.57
2023-03-05T09:19:34.975Z,16.67
2023-03-05T09:22:01.441Z,13.95
2023-03-05T09:24:28.055Z,13.30
2023-03-05T09:26:58.502Z,11.32
2023-03-05T09:29:25.017Z,12.90
2023-03-05T09:31:51.660Z,10.85
2023-03-05T09:34:18.141Z,12.75
2023-03-05T09:36:44.700Z,12.15
2023-03-05T09:39:11.104Z,13.00
2023-03-05T09:42:27.134Z,11.02
2023-03-05T09:45:17.101Z,11.35
2023-03-05T09:48:00.891Z,14.50
2023-03-05T09:50:33.397Z,21.52
2023-03-05T09:53:52.116Z,14.73
2023-03-05T09:56:23.568Z,15.07
2023-03-05T09:58:56.073Z,15.07
2023-03-05T10:01:29.700Z,23.63
2023-03-05T10:04:16.828Z,14.88
2023-03-05T10:06:56.385Z,16.50
2023-03-05T10:09:41.813Z,16.38
2023-03-05T10:12:20.724Z,14.35
2023-03-05T10:14:48.999Z,18.70
2023-03-05T10:17:55.349Z,14.55
2023-03-05T10:20:32.356Z,14.68
2023-03-05T10:23:07.760Z,15.25
2023-03-05T10:25:46.347Z,16.23
2023-03-05T10:28:35.619Z,15.45
2023-03-05T10:31:36.160Z,20.48
2023-03-05T10:34:33.648Z,16.20
2023-03-05T10:37:11.032Z,15.32
2023-03-05T10:39:55.525Z,16.15
2023-03-05T10:42:37.200Z,16.17
2023-03-05T10:45:16.833Z,16.38
2023-03-05T10:47:57.312Z,17.30
2023-03-05T10:50:26.952Z,15.85
2023-03-05T10:53:17.669Z,15.35
2023-03-05T10:55:44.285Z,14.82
2023-03-05T10:58:16.726Z,14.60
2023-03-05T11:01:06.642Z,13.15
2023-03-05T11:03:55.015Z,13.48
2023-03-05T11:06:42.349Z,15.52
2023-03-05T11:09:29.854Z,15.07
2023-03-05T11:12:14.413Z,14.65
2023-03-05T11:14:48.812Z,12.00
2023-03-05T11:17:34.587Z,11.65
2023-03-05T11:20:19.606Z,12.38
2023-03-05T11:23:23.494Z,11.75
2023-03-05T11:25:56.049Z,13.13
2023-03-05T11:28:48.371Z,11.85
2023-03-05T11:31:18.273Z,12.20
2023-03-05T11:34:06.612Z,13.48
2023-03-05T11:36:41.897Z,11.05
2023-03-05T11:39:10.450Z,10.88
2023-03-05T11:41:43.785Z,11.23
2023-03-05T11:44:25.004Z,10.77
2023-03-05T11:46:57.242Z,11.05
2023-03-05T11:49:26.886Z,11.10
2023-03-05T11:52:15.730Z,11.10
2023-03-05T11:55:05.572Z,11.30
2023-03-05T11:57:52.466Z,11.02
2023-03-05T12:00:24.541Z,10.60
2023-03-05T12:02:54.571Z,9.23
2023-03-05T12:05:21.382Z,10.02
2023-03-05T12:07:52.710Z,10.77
2023-03-05T12:10:22.137Z,10.57
2023-03-05T12:13:13.449Z,12.13
2023-03-05T12:15:56.274Z,13.07
2023-03-05T12:18:55.073Z,9.95
2023-03-05T12:21:26.067Z,10.32
2023-03-05T12:23:58.896Z,10.35
2023-03-05T12:26:53.285Z,10.38
2023-03-05T12:29:44.604Z,9.88
2023-03-05T12:32:25.255Z,11.68
2023-03-05T12:34:59.562Z,11.43
2023-03-05T12:37:25.830Z,10.90
2023-03-05T12:40:00.975Z,21.90
2023-03-05T12:42:30.316Z,13.52
2023-03-05T12:45:24.132Z,12.75
2023-03-05T12:47:56.488Z,10.68
2023-03-05T12:50:29.031Z,9.60
2023-03-05T12:52:57.788Z,9.43
2023-03-05T12:55:33.924Z,9.82
2023-03-05T12:58:19.158Z,9.55
2023-03-05T13:00:51.661Z,9.85
2023-03-05T13:03:23.910Z,11.00
2023-03-05T13:05:57.216Z,11.90
2023-03-05T13:08:26.994Z,9.70
2023-03-05T13:11:06.003Z,9.57
2023-03-05T13:13:37.499Z,12.98
2023-03-05T13:16:05.063Z,11.25
2023-03-05T13:18:33.137Z,10.00
2023-03-05T13:21:15.704Z,9.63
2023-03-05T13:23:57.773Z,11.82
2023-03-05T13:26:27.032Z,10.95
2023-03-05T13:29:13.617Z,11.25
2023-03-05T13:31:45.682Z,10.13
2023-03-05T13:34:22.350Z,13.85
2023-03-05T13:37:00.743Z,9.95
2023-03-05T13:39:31.745Z,11.07
2023-03-05T13:42:20.012Z,11.73
2023-03-05T13:45:04.878Z,12.95
2023-03-05T13:47:33.586Z,11.90
2023-03-05T13:50:06.566Z,10.63
2023-03-05T13:52:36.062Z,11.45
2023-03-05T13:55:11.628Z,10.40
2023-03-05T13:57:40.497Z,10.23
2023-03-05T14:00:26.922Z,11.27
2023-03-05T14:02:57.561Z,12.60
2023-03-05T14:05:25.336Z,14.43
2023-03-05T14:07:52.528Z,10.73
2023-03-05T14:10:30.902Z,11.93
2023-03-05T14:12:59.990Z,13.70
2023-03-05T14:15:29.559Z,11.30
2023-03-05T14:18:11.180Z,11.50
2023-03-05T14:20:39.810Z,10.80
2023-03-05T14:23:37.194Z,13.43
2023-03-05T14:26:29.407Z,13.50
2023-03-05T14:29:01.666Z,12.80
2023-03-05T14:31:30.827Z,14.70
2023-03-05T14:34:06.217Z,10.98
2023-03-05T14:36:33.841Z,11.27
2023-03-05T14:39:00.956Z,14.85
2023-03-05T14:41:39.947Z,10.10
2023-03-05T14:44:15.546Z,12.82
2023-03-05T14:46:43.555Z,14.27
2023-03-05T14:49:10.264Z,12.20
2023-03-05T14:51:41.173Z,16.80
2023-03-05T14:54:17.324Z,10.95
2023-03-05T14:56:43.792Z,16.35
2023-03-05T14:59:10.136Z,13.15
2023-03-05T15:01:36.533Z,13.77
2023-03-05T15:04:02.913Z,12.77
2023-03-05T15:06:36.592Z,12.57
2023-03-05T15:09:04.239Z,11.32
2023-03-05T15:11:30.800Z,13.70
2023-03-05T15:13:57.184Z,12.07
2023-03-05T15:16:23.619Z,13.52
2023-03-05T15:18:49.994Z,12.15
2023-03-05T15:21:16.558Z,15.32
2023-03-05T15:23:44.480Z,16.13
2023-03-05T15:26:13.877Z,11.05
2023-03-05T15:28:41.540Z,14.77
2023-03-05T15:31:08.388Z,16.88
2023-03-05T15:33:35.042Z,15.57
2023-03-05T15:36:01.473Z,14.40
2023-03-05T15:38:28.191Z,13.82
2023-03-05T15:40:54.653Z,13.90
2023-03-05T15:43:21.151Z,12.20
2023-03-05T15:45:48.010Z,12.68
2023-03-05T15:48:14.643Z,13.02
2023-03-05T15:50:42.779Z,11.05
2023-03-05T15:53:15.700Z,11.38
2023-03-05T15:55:43.797Z,11.55
2023-03-05T15:58:15.099Z,11.38
2023-03-05T16:00:41.799Z,11.20
2023-03-05T16:03:08.408Z,11.55
2023-03-05T16:05:36.650Z,14.18
2023-03-05T16:08:03.247Z,13.75
2023-03-05T16:10:30.686Z,11.85
2023-03-05T16:13:02.697Z,11.77
2023-03-05T16:15:30.847Z,11.32
2023-03-05T16:18:02.291Z,11.10
2023-03-05T16:20:28.897Z,15.00
2023-03-05T16:22:55.293Z,11.23
2023-03-05T16:25:22.099Z,13.30
2023-03-05T16:27:48.835Z,15.32
2023-03-05T16:30:16.224Z,14.20
2023-03-05T16:32:43.203Z,12.27
2023-03-05T16:35:12.450Z,12.93
2023-03-05T16:37:40.346Z,13.37
2023-03-05T16:40:08.832Z,14.00
2023-03-05T16:42:35.315Z,13.70
2023-03-05T16:45:02.030Z,13.80
2023-03-05T16:47:28.468Z,13.35
2023-03-05T16:49:54.877Z,13.88
2023-03-05T16:52:22.418Z,13.20
2023-03-05T16:54:49.362Z,13.40
2023-03-05T16:57:16.239Z,15.18
2023-03-05T16:59:43.710Z,15.45
2023-03-05T17:02:12.873Z,15.48
2023-03-05T17:04:39.353Z,14.80
2023-03-05T17:07:05.883Z,17.23
2023-03-05T17:09:32.469Z,16.95
2023-03-05T17:11:58.927Z,14.27
2023-03-05T17:14:25.732Z,17.10
2023-03-05T17:16:52.380Z,16.00
2023-03-05T17:19:19.097Z,16.65
2023-03-05T17:21:45.960Z,17.05
2023-03-05T17:24:12.641Z,18.65
2023-03-05T17:26:39.279Z,17.95
2023-03-05T17:29:06.504Z,18.23
2023-03-05T17:31:33.398Z,19.52
2023-03-05T17:34:00.184Z,19.50
2023-03-05T17:36:26.645Z,18.90
2023-03-05T17:38:53.916Z,21.63
2023-03-05T17:41:20.840Z,50.33
2023-03-05T17:43:47.338Z,134.90
2023-03-05T17:46:14.294Z,74.43
2023-03-05T17:48:41.540Z,46.00
2023-03-05T17:51:11.617Z,64.13
2023-03-05T17:53:40.085Z,49.28
2023-03-05T17:56:11.691Z,33.00
2023-03-05T17:58:38.372Z,39.58
2023-03-05T18:01:05.696Z,42.17
2023-03-05T18:03:32.144Z,31.48
2023-03-05T18:05:58.617Z,42.80
2023-03-05T18:08:24.983Z,36.33
2023-03-05T18:10:51.603Z,29.98
2023-03-05T18:13:17.948Z,48.72
2023-03-05T18:15:47.585Z,39.30
2023-03-05T18:18:15.742Z,52.78
2023-03-05T18:24:28.703Z,36.00
2023-03-05T18:26:55.118Z,38.05
2023-03-05T18:29:21.473Z,32.67
2023-03-05T18:31:47.870Z,32.10
2023-03-05T18:34:14.209Z,30.42
2023-03-05T18:36:40.624Z,30.92
2023-03-05T18:39:07.010Z,29.55
2023-03-05T18:41:33.663Z,29.98
2023-03-05T18:44:00.132Z,30.92
2023-03-05T18:46:26.594Z,31.05
2023-03-05T18:48:53.080Z,32.53
2023-03-05T18:51:21.583Z,30.95
2023-03-05T18:53:48.688Z,31.58
2023-03-05T18:56:15.100Z,31.13
2023-03-05T18:58:41.519Z,32.38
2023-03-05T19:01:09.165Z,30.52
2023-03-05T19:03:35.682Z,32.00
2023-03-05T19:06:05.250Z,31.38
2023-03-05T19:08:31.702Z,33.30
2023-03-05T19:10:58.051Z,36.05
2023-03-05T19:13:40.307Z,35.03
2023-03-05T19:16:10.965Z,37.45
2023-03-05T19:18:43.940Z,35.03
2023-03-05T19:21:10.644Z,34.58
2023-03-05T19:23:37.111Z,36.80
2023-03-05T19:26:03.816Z,36.97
2023-03-05T19:28:30.291Z,36.53
2023-03-05T19:30:57.276Z,36.88
2023-03-05T19:33:25.008Z,37.25
2023-03-05T19:35:51.862Z,37.95
2023-03-05T19:38:18.275Z,37.50
2023-03-05T19:40:44.877Z,38.10
2023-03-05T19:43:11.408Z,39.35
2023-03-05T19:45:38.298Z,39.13
2023-03-05T19:48:05.424Z,40.85
2023-03-05T19:50:34.139Z,40.55
2023-03-05T19:53:01.076Z,41.28
2023-03-05T19:55:27.499Z,39.35
2023-03-05T19:57:53.918Z,38.17
2023-03-05T20:00:20.965Z,39.47
2023-03-05T20:02:48.569Z,39.47
2023-03-05T20:05:15.030Z,42.50
2023-03-05T20:07:41.375Z,39.25
2023-03-05T20:10:08.121Z,41.70
2023-03-05T20:12:36.311Z,41.05
2023-03-05T20:15:02.808Z,42.00
2023-03-05T20:17:29.190Z,43.30
2023-03-05T20:19:58.850Z,41.47
2023-03-05T20:22:25.285Z,41.67
2023-03-05T20:24:51.642Z,41.47
2023-03-05T20:27:18.020Z,42.53
2023-03-05T20:29:44.435Z,43.28
2023-03-05T20:32:10.918Z,42.88
2023-03-05T20:34:37.337Z,42.00
2023-03-05T20:37:04.995Z,43.85
2023-03-05T20:39:31.367Z,41.95
2023-03-05T20:41:57.815Z,40.83
2023-03-05T20:44:24.183Z,41.38
2023-03-05T20:47:02.549Z,41.80
2023-03-05T20:49:29.117Z,41.35
2023-03-05T20:51:55.476Z,40.00
2023-03-05T20:54:21.945Z,41.42
2023-03-05T20:56:48.373Z,41.10
2023-03-05T20:59:14.762Z,40.42
2023-03-05T21:01:41.240Z,41.55
2023-03-05T21:04:08.004Z,40.42
2023-03-05T21:06:34.760Z,39.58
2023-03-05T21:09:01.196Z,39.03
2023-03-05T21:11:27.843Z,38.78
2023-03-05T21:13:54.296Z,39.08
2023-03-05T21:16:26.828Z,39.88
2023-03-05T21:18:55.747Z,40.45
2023-03-05T21:21:22.311Z,38.85
2023-03-05T21:23:48.779Z,39.03
2023-03-05T21:26:15.402Z,39.15
2023-03-05T21:28:42.164Z,40.75
2023-03-05T21:31:14.094Z,43.67
2023-03-05T21:33:40.922Z,43.63
2023-03-05T21:36:07.757Z,47.53
2023-03-05T21:38:34.742Z,49.92
2023-03-05T21:41:03.142Z,45.40
2023-03-05T21:43:31.266Z,47.30
2023-03-05T21:45:58.513Z,43.85
2023-03-05T21:48:24.990Z,42.33
2023-03-05T21:50:52.388Z,42.22
2023-03-05T21:53:19.537Z,41.22
2023-03-05T21:56:03.157Z,41.30
2023-03-05T21:58:34.656Z,41.38
2023-03-05T22:01:01.836Z,41.47
2023-03-05T22:03:29.214Z,46.63
2023-03-05T22:05:56.149Z,42.03
2023-03-05T22:08:23.518Z,45.15
2023-03-05T22:10:49.942Z,44.63
2023-03-05T22:13:17.873Z,42.15
2023-03-05T22:15:49.171Z,45.00
2023-03-05T22:18:18.975Z,43.92
2023-03-05T22:20:46.268Z,44.33
2023-03-05T22:23:13.671Z,49.85
2023-03-05T22:25:40.693Z,46.22
2023-03-05T22:28:07.501Z,48.20
2023-03-05T22:30:33.990Z,47.63
2023-03-05T22:33:02.133Z,49.05
2023-03-05T22:35:29.809Z,46.30
2023-03-05T22:37:56.242Z,45.03
2023-03-05T22:40:23.961Z,48.83
2023-03-05T22:42:50.321Z,47.70
2023-03-05T22:45:18.121Z,47.60
2023-03-05T22:47:49.324Z,47.72
2023-03-05T22:50:17.141Z,47.92
2023-03-05T22:52:43.671Z,47.80
2023-03-05T22:55:12.674Z,49.50
2023-03-05T22:57:39.164Z,46.80
2023-03-05T23:00:08.823Z,48.72
2023-03-05T23:02:35.466Z,47.67
2023-03-05T23:05:03.421Z,48.60
2023-03-05T23:07:33.311Z,47.75
2023-03-05T23:10:04.417Z,48.75
2023-03-05T23:12:33.042Z,47.83
2023-03-05T23:15:01.239Z,54.70
2023-03-05T23:17:27.851Z,64.43
2023-03-05T23:19:54.210Z,58.38
2023-03-05T23:22:21.097Z,57.20
2023-03-05T23:24:47.776Z,58.95
2023-03-05T23:27:16.704Z,57.78
2023-03-05T23:30:06.017Z,61.13
2023-03-05T23:32:32.404Z,60.37
2023-03-05T23:34:58.764Z,58.80
2023-03-05T23:37:25.137Z,61.30
2023-03-05T23:39:51.478Z,58.00
2023-03-05T23:42:17.861Z,58.03
2023-03-05T23:44:44.211Z,51.88
2023-03-05T23:47:10.643Z,52.95
2023-03-05T23:49:37.001Z,52.28
2023-03-05T23:52:03.406Z,53.60
2023-03-05T23:54:30.007Z,53.35
2023-03-05T23:56:56.412Z,53.83
2023-03-05T23:59:22.844Z,55.55
